createdAt,value
2022-09-22T00:00:59.595Z,14.40
2022-09-22T00:04:22.564Z,17.00
2022-09-22T00:07:49.300Z,21.50
2022-09-22T00:11:17.102Z,25.60
2022-09-22T00:14:40.005Z,29.50
2022-09-22T00:18:02.860Z,29.70
2022-09-22T00:21:27.762Z,30.30
2022-09-22T00:24:52.780Z,30.30
2022-09-22T00:28:15.643Z,33.20
2022-09-22T00:31:40.279Z,33.70
2022-09-22T00:35:03.626Z,31.70
2022-09-22T00:38:26.668Z,34.40
2022-09-22T00:41:53.140Z,35.80
2022-09-22T00:45:16.141Z,39.40
2022-09-22T00:48:45.736Z,44.20
2022-09-22T00:52:09.364Z,48.00
2022-09-22T00:55:35.987Z,48.40
2022-09-22T00:59:03.101Z,52.50
2022-09-22T01:02:26.391Z,51.50
2022-09-22T01:05:53.307Z,52.30
2022-09-22T01:09:16.728Z,54.90
2022-09-22T01:12:49.997Z,58.10
2022-09-22T01:16:31.128Z,61.60
2022-09-22T01:20:27.590Z,63.70
2022-09-22T01:24:20.281Z,70.90
2022-09-22T01:28:15.292Z,71.00
2022-09-22T01:31:42.707Z,77.00
2022-09-22T01:35:12.812Z,75.00
2022-09-22T01:38:42.222Z,77.40
2022-09-22T01:42:11.388Z,77.30
2022-09-22T01:45:36.693Z,82.60
2022-09-22T01:49:06.354Z,81.90
2022-09-22T01:52:31.462Z,84.80
2022-09-22T01:55:59.668Z,90.90
2022-09-22T01:59:26.933Z,94.50
2022-09-22T02:02:55.076Z,96.00
2022-09-22T02:06:22.700Z,96.80
2022-09-22T02:09:47.268Z,97.40
2022-09-22T02:13:10.155Z,95.50
2022-09-22T02:16:33.738Z,96.70
2022-09-22T02:19:56.777Z,98.40
2022-09-22T02:23:21.112Z,99.80
2022-09-22T02:26:44.068Z,99.90
2022-09-22T02:30:10.307Z,99.90
2022-09-22T02:33:38.176Z,99.90
2022-09-22T02:37:08.055Z,99.90
2022-09-22T02:40:46.417Z,99.90
2022-09-22T02:44:15.880Z,99.90
2022-09-22T02:47:44.533Z,99.90
2022-09-22T02:51:08.210Z,99.90
2022-09-22T02:54:31.086Z,99.90
2022-09-22T02:57:55.469Z,99.90
2022-09-22T03:01:18.423Z,99.90
2022-09-22T03:04:41.412Z,99.90
2022-09-22T03:08:04.405Z,99.90
2022-09-22T03:11:28.078Z,99.90
2022-09-22T03:14:52.321Z,99.90
2022-09-22T03:18:15.305Z,99.90
2022-09-22T03:21:38.205Z,99.90
2022-09-22T03:25:01.067Z,99.90
2022-09-22T03:28:24.395Z,99.90
2022-09-22T03:31:49.069Z,99.90
2022-09-22T03:35:11.978Z,99.90
2022-09-22T03:38:34.864Z,99.90
2022-09-22T03:41:57.989Z,99.90
2022-09-22T03:45:20.914Z,99.90
2022-09-22T03:48:45.525Z,99.90
2022-09-22T03:52:08.498Z,99.90
2022-09-22T03:55:31.433Z,99.90
2022-09-22T03:58:54.452Z,99.90
2022-09-22T04:02:18.336Z,99.90
2022-09-22T04:05:50.206Z,99.90
2022-09-22T04:09:13.148Z,99.90
2022-09-22T04:12:37.193Z,99.90
2022-09-22T04:16:00.077Z,99.90
2022-09-22T04:19:22.984Z,99.90
2022-09-22T04:22:47.202Z,99.90
2022-09-22T04:26:10.143Z,99.90
2022-09-22T04:29:33.085Z,99.90
2022-09-22T04:32:55.930Z,99.90
2022-09-22T04:36:18.807Z,99.90
2022-09-22T04:39:43.052Z,99.90
2022-09-22T04:43:05.947Z,99.90
2022-09-22T04:46:28.929Z,99.90
2022-09-22T04:49:51.890Z,95.00
2022-09-22T04:53:14.765Z,91.50
2022-09-22T04:56:38.972Z,98.60
2022-09-22T05:00:02.029Z,99.90
2022-09-22T05:03:25.071Z,99.90
2022-09-22T05:06:48.007Z,99.90
2022-09-22T05:10:11.518Z,99.90
2022-09-22T05:13:35.756Z,99.90
2022-09-22T05:16:58.703Z,99.90
2022-09-22T05:20:22.679Z,99.90
2022-09-22T05:23:45.852Z,99.90
2022-09-22T05:27:09.053Z,99.90
2022-09-22T05:30:34.124Z,99.90
2022-09-22T05:33:57.346Z,99.90
2022-09-22T05:37:20.232Z,99.90
2022-09-22T05:40:46.792Z,99.90
2022-09-22T05:44:09.763Z,99.90
2022-09-22T05:47:34.900Z,99.90
2022-09-22T05:50:57.800Z,99.90
2022-09-22T05:54:23.315Z,99.90
2022-09-22T05:57:46.465Z,99.90
2022-09-22T06:01:09.413Z,99.90
2022-09-22T06:04:33.664Z,99.90
2022-09-22T06:08:00.698Z,99.90
2022-09-22T06:11:23.609Z,99.90
2022-09-22T06:14:46.838Z,99.90
2022-09-22T06:18:15.166Z,99.90
2022-09-22T06:21:39.852Z,99.90
2022-09-22T06:25:02.822Z,99.90
2022-09-22T06:28:25.735Z,99.90
2022-09-22T06:31:49.418Z,98.80
2022-09-22T06:35:12.363Z,87.60
2022-09-22T06:38:36.612Z,66.00
2022-09-22T06:42:01.044Z,52.80
2022-09-22T06:45:24.978Z,39.00
2022-09-22T06:48:51.421Z,25.50
2022-09-22T06:52:14.788Z,10.40
2022-09-22T06:55:41.407Z,1.00
2022-09-22T06:59:18.255Z,1.00
2022-09-22T07:02:41.284Z,1.00
2022-09-22T07:06:05.437Z,1.00
2022-09-22T07:09:28.367Z,1.00
2022-09-22T07:12:52.601Z,1.00
2022-09-22T07:16:17.620Z,1.00
2022-09-22T07:19:40.578Z,1.00
2022-09-22T07:23:03.421Z,1.00
2022-09-22T07:26:32.481Z,1.00
2022-09-22T07:29:57.499Z,1.00
2022-09-22T07:33:20.901Z,1.00
2022-09-22T07:36:44.088Z,1.00
2022-09-22T07:40:08.357Z,1.00
2022-09-22T07:43:31.348Z,1.00
2022-09-22T07:46:56.007Z,1.00
2022-09-22T07:50:18.969Z,1.00
2022-09-22T07:53:42.181Z,1.00
2022-09-22T07:57:05.244Z,1.00
2022-09-22T08:00:32.744Z,1.00
2022-09-22T08:03:57.724Z,1.00
2022-09-22T08:07:20.659Z,1.00
2022-09-22T08:10:43.585Z,1.00
2022-09-22T08:14:08.740Z,1.00
2022-09-22T08:17:31.705Z,1.00
2022-09-22T08:20:55.999Z,1.00
2022-09-22T08:24:21.795Z,1.00
2022-09-22T08:27:44.991Z,1.00
2022-09-22T08:31:13.500Z,1.00
2022-09-22T08:34:36.512Z,1.00
2022-09-22T08:38:00.803Z,1.00
2022-09-22T08:41:35.497Z,1.00
2022-09-22T08:45:01.979Z,1.00
2022-09-22T08:48:46.178Z,1.00
2022-09-22T08:52:17.207Z,1.00
2022-09-22T08:55:44.025Z,1.00
2022-09-22T08:59:12.385Z,1.00
2022-09-22T09:02:43.148Z,1.00
2022-09-22T09:06:11.140Z,1.00
2022-09-22T09:09:45.697Z,1.00
2022-09-22T09:13:36.529Z,1.00
2022-09-22T09:17:03.980Z,1.00
2022-09-22T09:20:35.117Z,1.00
2022-09-22T09:27:51.461Z,1.00
2022-09-22T09:31:22.619Z,1.00
2022-09-22T09:34:46.879Z,1.00
2022-09-22T09:38:15.524Z,1.00
2022-09-22T09:41:39.192Z,1.00
2022-09-22T09:45:03.559Z,1.00
2022-09-22T09:48:35.528Z,1.00
2022-09-22T09:52:01.265Z,1.00
2022-09-22T09:55:27.207Z,1.00
2022-09-22T09:59:14.802Z,1.00
2022-09-22T10:02:48.523Z,1.00
2022-09-22T10:06:14.173Z,1.00
2022-09-22T10:09:37.130Z,1.00
2022-09-22T10:13:31.465Z,1.00
2022-09-22T10:16:54.401Z,1.00
2022-09-22T10:20:22.603Z,1.00
2022-09-22T10:23:48.593Z,1.00
2022-09-22T10:27:21.865Z,1.00
2022-09-22T10:30:46.619Z,1.00
2022-09-22T10:34:30.156Z,1.00
2022-09-22T10:37:54.416Z,1.00
2022-09-22T10:41:21.580Z,1.00
2022-09-22T10:44:48.618Z,1.00
2022-09-22T10:48:23.699Z,1.00
2022-09-22T10:51:59.393Z,1.00
2022-09-22T10:55:30.014Z,1.00
2022-09-22T10:59:38.535Z,1.00
2022-09-22T11:03:31.516Z,1.00
2022-09-22T11:07:28.858Z,1.00
2022-09-22T11:11:15.410Z,1.00
2022-09-22T11:14:53.683Z,1.00
2022-09-22T11:18:34.463Z,1.00
2022-09-22T11:22:13.448Z,1.00
2022-09-22T11:25:51.867Z,1.00
2022-09-22T11:29:47.277Z,1.00
2022-09-22T11:33:30.980Z,1.00
2022-09-22T11:37:22.968Z,1.00
2022-09-22T11:41:16.178Z,1.00
2022-09-22T11:44:51.822Z,1.00
2022-09-22T11:48:28.981Z,1.00
2022-09-22T11:52:06.479Z,1.00
2022-09-22T11:55:37.229Z,1.00
2022-09-22T11:59:05.221Z,1.00
2022-09-22T12:02:35.865Z,1.00
2022-09-22T12:06:03.233Z,1.00
2022-09-22T12:09:37.125Z,1.00
2022-09-22T12:13:00.834Z,1.00
2022-09-22T12:16:31.171Z,1.00
2022-09-22T12:20:00.967Z,1.00
2022-09-22T12:23:39.024Z,1.00
2022-09-22T12:27:12.032Z,1.00
2022-09-22T12:30:35.033Z,1.00
2022-09-22T12:33:58.346Z,1.00
2022-09-22T12:37:29.732Z,1.00
2022-09-22T12:40:58.137Z,1.00
2022-09-22T12:44:24.765Z,1.00
2022-09-22T12:47:51.115Z,1.00
2022-09-22T12:51:31.161Z,1.00
2022-09-22T12:55:18.604Z,1.00
2022-09-22T12:58:45.100Z,1.00
2022-09-22T13:02:29.356Z,1.00
2022-09-22T13:05:53.895Z,1.00
2022-09-22T13:09:22.535Z,1.00
2022-09-22T13:13:22.092Z,1.00
2022-09-22T13:16:46.222Z,1.00
2022-09-22T13:20:21.672Z,1.00
2022-09-22T13:23:55.734Z,1.00
2022-09-22T13:27:18.698Z,1.00
2022-09-22T13:30:44.792Z,1.00
2022-09-22T13:34:21.608Z,1.00
2022-09-22T13:37:44.576Z,1.00
2022-09-22T13:41:13.612Z,1.00
2022-09-22T13:44:41.829Z,1.00
2022-09-22T13:48:11.035Z,1.00
2022-09-22T13:51:34.244Z,1.00
2022-09-22T13:54:59.488Z,1.00
2022-09-22T13:58:41.795Z,1.00
2022-09-22T14:02:09.165Z,1.00
2022-09-22T14:05:35.605Z,1.00
2022-09-22T14:09:00.294Z,1.00
2022-09-22T14:12:23.185Z,1.00
2022-09-22T14:15:49.659Z,1.00
2022-09-22T14:19:16.369Z,1.00
2022-09-22T14:22:43.732Z,1.00
2022-09-22T14:26:23.949Z,1.00
2022-09-22T14:29:50.071Z,1.00
2022-09-22T14:33:18.640Z,1.00
2022-09-22T14:36:46.088Z,1.00
2022-09-22T14:40:16.801Z,1.00
2022-09-22T14:43:42.203Z,1.00
2022-09-22T14:47:10.297Z,1.00
2022-09-22T14:50:40.121Z,1.00
2022-09-22T14:54:05.665Z,1.00
2022-09-22T14:57:30.266Z,1.00
2022-09-22T15:01:15.903Z,1.00
2022-09-22T15:04:41.958Z,1.00
2022-09-22T15:08:05.595Z,1.00
2022-09-22T15:11:47.106Z,1.00
2022-09-22T15:15:21.114Z,1.00
2022-09-22T15:18:43.993Z,1.00
2022-09-22T15:22:06.945Z,1.00
2022-09-22T15:25:30.085Z,1.00
2022-09-22T15:28:55.530Z,1.00
2022-09-22T15:32:19.828Z,1.00
2022-09-22T15:35:44.642Z,1.00
2022-09-22T15:39:09.400Z,1.00
2022-09-22T15:42:32.476Z,1.00
2022-09-22T15:45:59.743Z,1.00
2022-09-22T15:49:26.958Z,1.00
2022-09-22T15:52:50.163Z,1.00
2022-09-22T15:56:18.996Z,1.00
2022-09-22T15:59:42.861Z,1.00
2022-09-22T16:03:14.343Z,1.00
2022-09-22T16:06:39.510Z,1.00
2022-09-22T16:10:02.397Z,1.00
2022-09-22T16:13:27.112Z,1.00
2022-09-22T16:16:51.618Z,1.00
2022-09-22T16:20:17.837Z,1.00
2022-09-22T16:23:42.156Z,1.00
2022-09-22T16:27:07.259Z,1.00
2022-09-22T16:30:30.674Z,1.00
2022-09-22T16:33:54.693Z,1.00
2022-09-22T16:37:17.927Z,1.00
2022-09-22T16:40:42.529Z,1.00
2022-09-22T16:44:06.437Z,1.00
2022-09-22T16:47:29.542Z,1.00
2022-09-22T16:50:55.050Z,1.00
2022-09-22T16:54:19.784Z,1.00
2022-09-22T16:57:44.037Z,1.00
2022-09-22T17:01:07.208Z,1.00
2022-09-22T17:04:32.160Z,1.00
2022-09-22T17:07:55.253Z,1.00
2022-09-22T17:11:19.051Z,1.00
2022-09-22T17:14:47.574Z,1.00
2022-09-22T17:18:10.901Z,1.00
2022-09-22T17:21:36.636Z,1.00
2022-09-22T17:24:59.508Z,1.00
2022-09-22T17:28:25.826Z,1.00
2022-09-22T17:31:56.393Z,1.00
2022-09-22T17:35:19.280Z,1.00
2022-09-22T17:38:42.223Z,1.00
2022-09-22T17:42:06.050Z,1.00
2022-09-22T17:45:28.925Z,1.00
2022-09-22T17:49:11.040Z,1.00
2022-09-22T17:52:51.611Z,1.00
2022-09-22T17:56:14.524Z,1.00
2022-09-22T17:59:38.208Z,1.00
2022-09-22T18:03:02.214Z,1.00
2022-09-22T18:06:26.476Z,1.00
2022-09-22T18:09:51.032Z,1.00
2022-09-22T18:13:13.924Z,1.00
2022-09-22T18:16:37.353Z,1.00
2022-09-22T18:20:01.193Z,1.00
2022-09-22T18:23:28.344Z,1.00
2022-09-22T18:26:53.257Z,1.00
2022-09-22T18:30:19.289Z,1.00
2022-09-22T18:33:43.395Z,1.00
2022-09-22T18:37:06.533Z,1.00
2022-09-22T18:40:31.736Z,1.00
2022-09-22T18:43:55.105Z,1.00
2022-09-22T18:47:19.661Z,1.00
2022-09-22T18:50:42.958Z,1.00
2022-09-22T18:54:08.292Z,1.00
2022-09-22T18:57:32.655Z,1.00
2022-09-22T19:00:55.969Z,1.00
2022-09-22T19:04:21.591Z,1.00
2022-09-22T19:07:47.634Z,1.00
2022-09-22T19:11:11.733Z,1.00
2022-09-22T19:14:38.309Z,1.00
2022-09-22T19:18:01.209Z,1.00
2022-09-22T19:21:25.117Z,1.00
2022-09-22T19:24:48.113Z,1.00
2022-09-22T19:28:12.949Z,1.00
2022-09-22T19:31:39.043Z,1.00
2022-09-22T19:35:02.331Z,1.00
2022-09-22T19:38:25.654Z,1.00
2022-09-22T19:41:49.016Z,1.00
2022-09-22T19:45:12.616Z,1.00
2022-09-22T19:48:38.008Z,1.00
2022-09-22T19:52:01.397Z,1.00
2022-09-22T19:55:24.509Z,1.00
2022-09-22T19:58:47.573Z,1.00
2022-09-22T20:02:13.209Z,1.00
2022-09-22T20:05:39.011Z,1.00
2022-09-22T20:09:03.758Z,1.00
2022-09-22T20:12:26.675Z,1.00
2022-09-22T20:15:49.672Z,1.00
2022-09-22T20:19:12.732Z,1.00
2022-09-22T20:22:40.237Z,1.00
2022-09-22T20:26:03.240Z,1.00
2022-09-22T20:29:26.319Z,1.00
2022-09-22T20:32:51.027Z,1.00
2022-09-22T20:36:14.634Z,1.00
2022-09-22T20:39:39.006Z,1.00
2022-09-22T20:43:03.117Z,1.00
2022-09-22T20:46:26.457Z,1.00
2022-09-22T20:49:51.935Z,1.00
2022-09-22T20:53:15.817Z,1.00
2022-09-22T20:56:42.764Z,1.00
2022-09-22T21:00:06.898Z,1.00
2022-09-22T21:03:30.113Z,1.00
2022-09-22T21:06:53.161Z,1.00
2022-09-22T21:10:33.827Z,1.00
2022-09-22T21:14:03.620Z,1.00
2022-09-22T21:17:27.603Z,1.00
2022-09-22T21:20:50.689Z,1.00
2022-09-22T21:24:14.272Z,1.00
2022-09-22T21:27:38.140Z,1.00
2022-09-22T21:31:05.525Z,1.00
2022-09-22T21:34:29.585Z,1.00
2022-09-22T21:37:56.063Z,1.00
2022-09-22T21:41:21.340Z,1.00
2022-09-22T21:44:46.421Z,1.00
2022-09-22T21:48:11.191Z,1.00
2022-09-22T21:51:36.521Z,1.00
2022-09-22T21:54:59.497Z,1.00
2022-09-22T21:58:22.380Z,1.00
2022-09-22T22:01:45.869Z,1.00
2022-09-22T22:05:10.507Z,1.00
2022-09-22T22:08:37.212Z,1.00
2022-09-22T22:12:00.522Z,1.00
2022-09-22T22:15:23.722Z,1.00
2022-09-22T22:18:46.944Z,1.00
2022-09-22T22:22:11.396Z,1.00
2022-09-22T22:25:36.285Z,1.00
2022-09-22T22:28:59.136Z,1.00
2022-09-22T22:32:22.094Z,1.00
2022-09-22T22:35:50.665Z,1.00
2022-09-22T22:39:15.178Z,1.00
2022-09-22T22:42:38.205Z,1.00
2022-09-22T22:46:01.558Z,1.00
2022-09-22T22:49:24.640Z,1.00
2022-09-22T22:52:47.537Z,1.00
2022-09-22T22:56:16.514Z,1.00
2022-09-22T22:59:39.460Z,1.00
2022-09-22T23:03:02.389Z,1.00
2022-09-22T23:06:27.384Z,1.00
2022-09-22T23:10:05.977Z,1.00
2022-09-22T23:13:30.596Z,1.00
2022-09-22T23:16:53.655Z,1.00
2022-09-22T23:20:16.661Z,1.00
2022-09-22T23:23:40.746Z,1.00
2022-09-22T23:27:03.641Z,1.00
2022-09-22T23:30:28.188Z,1.00
2022-09-22T23:33:52.568Z,1.00
2022-09-22T23:37:15.478Z,1.00
2022-09-22T23:40:38.434Z,1.00
2022-09-22T23:44:02.698Z,1.00
2022-09-22T23:47:28.409Z,1.00
2022-09-22T23:50:52.977Z,1.00
2022-09-22T23:54:18.105Z,1.00
2022-09-22T23:57:41.026Z,1.00
